Time;durP1;ratioP1;P1;durP2;ratioP2;P2;SDS_P1;SDS_P2;PMS_P1;PMS_P2;Temp;Humidity;BMP_temperature;BMP_pressure;BME280_temperature;BME280_humidity;BME280_pressure;Samples;Min_cycle;Max_cycle;Signal;HPM_P1;HPM_P2
2021/07/15 00:02:13;;;;;;;17.10;10.80;;;;;;;23.36;81.86;99241.06;4821161;29;20065;-60
2021/07/15 00:04:39;;;;;;;16.55;10.45;;;;;;;23.35;81.87;99241.22;4820307;29;20050;-60
2021/07/15 00:07:05;;;;;;;17.67;10.65;;;;;;;23.36;81.96;99237.59;4821618;29;20069;-59
2021/07/15 00:09:32;;;;;;;13.00;10.27;;;;;;;23.35;82.20;99236.75;4822461;29;20054;-58
2021/07/15 00:11:57;;;;;;;15.35;10.85;;;;;;;23.36;82.30;99235.78;4805572;29;20065;-58
2021/07/15 00:14:23;;;;;;;20.73;9.88;;;;;;;23.29;82.31;99223.25;4821134;29;20054;-58
2021/07/15 00:16:54;;;;;;;19.85;10.80;;;;;;;23.35;82.43;99230.59;4821789;29;20046;-58
2021/07/15 00:19:23;;;;;;;16.02;11.10;;;;;;;23.33;82.65;99222.81;4821453;29;20050;-58
2021/07/15 00:21:48;;;;;;;15.85;10.75;;;;;;;23.33;82.90;99227.28;4821654;29;20183;-58
2021/07/15 00:24:17;;;;;;;17.27;10.60;;;;;;;23.32;83.05;99225.59;4821775;29;20092;-59
2021/07/15 00:26:48;;;;;;;20.13;11.10;;;;;;;23.32;82.99;99222.94;4790090;29;20043;-58
2021/07/15 00:29:15;;;;;;;16.90;10.63;;;;;;;23.32;83.20;99215.00;4821473;29;20411;-58
2021/07/15 00:31:41;;;;;;;15.52;10.70;;;;;;;23.31;83.54;99211.50;4821857;29;20042;-58
2021/07/15 00:34:09;;;;;;;21.00;10.60;;;;;;;23.31;83.85;99216.81;4821238;29;20103;-59
2021/07/15 00:36:36;;;;;;;17.52;11.50;;;;;;;23.29;84.09;99208.13;4821105;29;20050;-57
2021/07/15 00:39:04;;;;;;;21.05;10.75;;;;;;;23.29;84.33;99205.47;4821790;29;20467;-58
2021/07/15 00:41:30;;;;;;;14.90;10.63;;;;;;;23.29;84.36;99209.97;4820728;29;20042;-60
2021/07/15 00:43:56;;;;;;;16.63;10.85;;;;;;;23.29;84.71;99215.28;4822066;29;20046;-59
2021/07/15 00:46:22;;;;;;;22.63;11.25;;;;;;;23.29;85.02;99208.13;4821365;29;20054;-59
2021/07/15 00:48:47;;;;;;;25.50;11.25;;;;;;;23.30;85.73;99208.97;4820463;29;20513;-60
2021/07/15 00:51:14;;;;;;;23.38;10.90;;;;;;;23.28;86.06;99208.31;4805191;29;20082;-59
2021/07/15 00:53:40;;;;;;;18.95;11.82;;;;;;;23.29;86.05;99207.34;4805786;29;20107;-59
2021/07/15 00:56:06;;;;;;;19.55;11.43;;;;;;;23.26;86.24;99200.47;4820551;29;20063;-63
2021/07/15 00:58:32;;;;;;;21.90;11.40;;;;;;;23.27;86.59;99198.66;4803080;29;20566;-59
2021/07/15 01:00:58;;;;;;;20.55;11.43;;;;;;;23.25;86.75;99201.47;4811795;29;20046;-59
2021/07/15 01:03:23;;;;;;;25.00;12.65;;;;;;;23.24;86.97;99205.09;4819601;29;20537;-59
2021/07/15 01:05:52;;;;;;;17.42;11.82;;;;;;;23.22;86.98;99201.75;4821444;29;20058;-59
2021/07/15 01:08:18;;;;;;;;;;;;;;;23.20;86.57;99206.34;4821749;29;20414;-59
2021/07/15 01:11:11;;;;;;;21.15;11.38;;;;;;;23.20;86.78;99206.34;4823704;29;20392;-59
2021/07/15 01:14:09;;;;;;;20.15;12.32;;;;;;;23.22;87.05;99222.97;4807698;29;20555;-59
2021/07/15 01:17:04;;;;;;;;;;;;;;;23.22;86.94;99220.31;4808974;29;20082;-59
2021/07/15 01:19:51;;;;;;;17.92;11.40;;;;;;;23.22;87.00;99212.38;4794671;29;19929;-59
2021/07/15 01:22:39;;;;;;;16.95;11.77;;;;;;;23.21;86.71;99210.69;4812422;29;20058;-59
2021/07/15 01:25:35;;;;;;;22.83;11.88;;;;;;;23.23;86.22;99211.41;4808198;29;20046;-58
2021/07/15 01:28:24;;;;;;;19.15;10.95;;;;;;;23.25;85.45;99212.06;4790566;29;20042;-59
2021/07/15 01:30:53;;;;;;;17.30;11.75;;;;;;;23.28;84.62;99208.31;4806633;29;20533;-59
2021/07/15 01:33:21;;;;;;;20.30;11.18;;;;;;;23.30;84.33;99207.16;4822959;29;20054;-59
2021/07/15 01:36:08;;;;;;;22.97;12.80;;;;;;;23.31;83.87;99200.88;4807960;29;20047;-58
2021/07/15 01:38:57;;;;;;;21.95;12.30;;;;;;;23.31;83.72;99200.03;4792680;29;20705;-60
2021/07/15 01:41:28;;;;;;;20.08;11.40;;;;;;;23.31;83.74;99192.09;4807537;29;20498;-59
2021/07/15 01:44:01;;;;;;;27.73;11.35;;;;;;;23.29;83.98;99191.41;4807744;29;20046;-60
2021/07/15 01:46:27;;;;;;;27.38;12.23;;;;;;;23.31;83.98;99203.53;4824483;29;20058;-58
2021/07/15 01:48:53;;;;;;;19.92;11.38;;;;;;;23.31;83.94;99200.88;4807743;29;20418;-58
2021/07/15 01:51:19;;;;;;;19.65;12.35;;;;;;;23.31;83.67;99195.56;4823388;29;20046;-60
2021/07/15 01:53:45;;;;;;;21.23;12.57;;;;;;;23.30;83.86;99199.19;4824068;29;20046;-61
2021/07/15 01:56:11;;;;;;;21.08;13.18;;;;;;;23.32;83.86;99204.38;4806864;29;20868;-59
2021/07/15 01:58:38;;;;;;;23.35;14.63;;;;;;;23.29;83.84;99209.97;4823848;29;20141;-59
2021/07/15 02:01:07;;;;;;;25.73;14.35;;;;;;;23.26;84.29;99204.94;4823954;29;20649;-58
2021/07/15 02:03:34;;;;;;;22.05;15.38;;;;;;;23.26;84.30;99200.47;4822374;29;20050;-60
2021/07/15 02:06:00;;;;;;;32.13;16.80;;;;;;;23.25;84.46;99196.16;4805228;29;20057;-59
2021/07/15 02:08:26;;;;;;;27.05;17.00;;;;;;;23.24;84.63;99194.47;4807131;29;20039;-59
2021/07/15 02:10:54;;;;;;;25.33;17.95;;;;;;;23.26;84.75;99195.19;4807719;29;20133;-58
2021/07/15 02:13:21;;;;;;;23.48;17.75;;;;;;;23.23;84.92;99198.97;4823192;29;20050;-58
2021/07/15 02:15:48;;;;;;;33.28;16.92;;;;;;;23.24;85.20;99194.47;4822850;29;20050;-61
2021/07/15 02:18:17;;;;;;;25.50;17.75;;;;;;;23.27;85.33;99201.31;4806697;29;20522;-59
2021/07/15 02:20:43;;;;;;;;;;;;;;;23.28;84.74;99192.38;4822844;29;20054;-59
2021/07/15 02:23:09;;;;;;;33.97;17.80;;;;;;;23.30;84.60;99195.72;4823814;29;20018;-59
2021/07/15 02:25:39;;;;;;;24.02;16.33;;;;;;;23.30;84.78;99193.91;4823260;29;20085;-59
2021/07/15 02:28:09;;;;;;;25.27;19.10;;;;;;;23.36;84.46;99197.78;4822667;29;20134;-59
2021/07/15 02:30:35;;;;;;;25.30;18.63;;;;;;;23.46;84.06;99206.59;4791729;29;20089;-59
2021/07/15 02:33:08;;;;;;;21.20;16.70;;;;;;;23.54;83.43;99198.75;4806960;29;20118;-59
2021/07/15 02:35:38;;;;;;;21.00;16.70;;;;;;;23.65;82.86;99201.22;4801283;29;20190;-59
2021/07/15 02:38:06;;;;;;;27.80;17.33;;;;;;;23.74;82.48;99197.66;4805260;29;20058;-59
2021/07/15 02:40:32;;;;;;;26.27;17.33;;;;;;;23.84;81.85;99190.47;4789039;29;20122;-59
2021/07/15 02:42:58;;;;;;;22.20;17.40;;;;;;;23.91;81.16;99196.03;4819229;29;20525;-59
2021/07/15 02:45:24;;;;;;;30.58;16.95;;;;;;;23.94;80.74;99206.34;4820983;29;20129;-61
2021/07/15 02:47:51;;;;;;;25.85;17.85;;;;;;;23.99;80.59;99215.53;4822820;29;20063;-59
2021/07/15 02:50:20;;;;;;;26.60;16.88;;;;;;;24.01;80.38;99212.75;4822799;29;20042;-60
2021/07/15 02:52:47;;;;;;;23.70;17.55;;;;;;;24.05;79.86;99216.75;4820810;29;20050;-61
2021/07/15 02:55:14;;;;;;;26.10;18.38;;;;;;;24.03;79.75;99198.31;4820387;29;20042;-59
2021/07/15 02:58:12;;;;;;;25.85;17.33;;;;;;;24.06;79.57;99206.00;4806769;29;20581;-60
2021/07/15 03:00:44;;;;;;;25.13;17.70;;;;;;;24.08;79.17;99211.97;4823165;29;20590;-59
2021/07/15 03:03:17;;;;;;;21.73;16.90;;;;;;;24.12;79.02;99209.88;4823277;29;20049;-59
2021/07/15 03:05:54;;;;;;;22.73;17.27;;;;;;;24.16;78.58;99207.75;4803803;29;20481;-59
2021/07/15 03:08:24;;;;;;;24.67;16.90;;;;;;;24.19;78.41;99210.13;4788367;29;20408;-59
2021/07/15 03:10:54;;;;;;;23.27;16.75;;;;;;;24.20;78.21;99207.31;4798407;29;20042;-60
2021/07/15 03:13:20;;;;;;;23.13;17.17;;;;;;;24.22;78.06;99208.03;4818019;29;20050;-59
2021/07/15 03:15:45;;;;;;;30.40;18.35;;;;;;;24.24;77.97;99214.00;4821595;29;20162;-59
2021/07/15 03:18:19;;;;;;;28.20;18.42;;;;;;;24.24;78.01;99205.19;4822283;29;20475;-50
2021/07/15 03:20:46;;;;;;;26.20;18.20;;;;;;;24.25;77.93;99212.19;4806620;29;20078;-52
2021/07/15 03:23:15;;;;;;;21.88;16.63;;;;;;;24.23;78.11;99208.88;4821845;29;20425;-49
2021/07/15 03:25:46;;;;;;;22.60;16.80;;;;;;;24.22;78.15;99201.88;4805635;29;20050;-49
2021/07/15 03:28:14;;;;;;;25.38;19.17;;;;;;;24.22;78.22;99209.84;4805946;29;20054;-51
2021/07/15 03:30:40;;;;;;;23.27;17.67;;;;;;;24.23;77.95;99211.53;4806269;29;20102;-50
2021/07/15 03:33:06;;;;;;;28.73;18.58;;;;;;;24.19;77.83;99218.09;4822094;29;20047;-49
2021/07/15 03:35:33;;;;;;;30.27;20.45;;;;;;;24.13;77.87;99214.19;4821283;29;20046;-48
2021/07/15 03:37:59;;;;;;;29.52;19.58;;;;;;;24.04;78.07;99218.59;4788161;29;20061;-48
2021/07/15 03:40:26;;;;;;;30.30;19.35;;;;;;;24.03;78.63;99210.75;4795918;29;21026;-48
2021/07/15 03:42:53;;;;;;;27.95;18.17;;;;;;;24.07;78.74;99206.84;4821689;29;20058;-49
2021/07/15 03:45:20;;;;;;;25.45;18.67;;;;;;;24.12;78.59;99209.88;4805957;29;20046;-51
2021/07/15 03:47:52;;;;;;;23.45;17.38;;;;;;;24.14;78.51;99221.16;4804616;29;20062;-53
2021/07/15 03:50:29;;;;;;;27.90;18.00;;;;;;;24.16;78.69;99218.38;4805246;29;20050;-47
2021/07/15 03:52:58;;;;;;;27.92;18.88;;;;;;;24.17;78.58;99217.41;4806698;29;20065;-48
2021/07/15 03:55:26;;;;;;;22.02;17.13;;;;;;;24.23;78.24;99209.69;4818670;29;20065;-48
2021/07/15 03:57:53;;;;;;;31.05;20.02;;;;;;;24.21;78.16;99210.81;4821993;29;20058;-47
2021/07/15 04:00:22;;;;;;;27.50;19.55;;;;;;;24.23;78.07;99209.69;4820962;29;20091;-47
2021/07/15 04:02:51;;;;;;;24.88;18.60;;;;;;;24.28;78.17;99214.56;4820291;29;20046;-47
2021/07/15 04:05:20;;;;;;;29.83;18.20;;;;;;;24.34;78.05;99217.41;4794057;29;20050;-48
2021/07/15 04:07:46;;;;;;;22.90;16.57;;;;;;;24.38;77.98;99208.19;4820458;29;20141;-46
2021/07/15 04:10:12;;;;;;;29.60;18.25;;;;;;;24.42;77.63;99211.38;4822104;29;20079;-47
2021/07/15 04:12:39;;;;;;;25.58;19.52;;;;;;;24.45;77.40;99219.03;4822529;29;20042;-46
2021/07/15 04:15:09;;;;;;;32.47;18.80;;;;;;;24.51;77.31;99217.56;4822023;29;20125;-51
2021/07/15 04:17:56;;;;;;;28.30;17.90;;;;;;;24.55;77.28;99217.13;4805386;29;20085;-46
2021/07/15 04:20:24;;;;;;;27.23;20.50;;;;;;;24.58;76.80;99219.47;4805906;29;20066;-48
2021/07/15 04:22:52;;;;;;;23.17;17.43;;;;;;;24.62;76.67;99217.34;4805342;29;20057;-49
2021/07/15 04:25:19;;;;;;;26.30;18.33;;;;;;;24.67;76.58;99215.91;4815984;29;20422;-53
2021/07/15 04:27:47;;;;;;;37.67;19.65;;;;;;;24.72;76.78;99207.47;4821926;29;20305;-48
2021/07/15 04:30:15;;;;;;;24.60;18.52;;;;;;;24.77;76.33;99208.66;4804883;29;20046;-49
2021/07/15 04:32:52;;;;;;;24.50;18.65;;;;;;;24.81;75.91;99215.34;4821941;29;20103;-46
2021/07/15 04:35:20;;;;;;;22.60;19.15;;;;;;;24.87;75.22;99209.44;4805577;29;20106;-47
2021/07/15 04:37:46;;;;;;;31.33;20.00;;;;;;;24.93;75.28;99202.66;4822067;29;20494;-47
2021/07/15 04:40:16;;;;;;;31.35;17.67;;;;;;;25.00;75.27;99201.06;4805128;29;20141;-47
2021/07/15 04:42:42;;;;;;;28.63;18.63;;;;;;;25.05;75.06;99195.28;4820803;29;20410;-48
2021/07/15 04:45:10;;;;;;;33.25;18.38;;;;;;;25.11;74.79;99192.00;4825698;29;20118;-48
2021/07/15 04:47:39;;;;;;;30.83;19.10;;;;;;;25.15;73.75;99180.88;4805051;29;20066;-49
2021/07/15 04:50:09;;;;;;;26.08;19.35;;;;;;;25.20;73.74;99191.03;4806846;29;20061;-52
2021/07/15 04:52:37;;;;;;;21.70;17.70;;;;;;;25.25;73.14;99202.06;4806735;29;20073;-47
2021/07/15 04:55:03;;;;;;;33.05;19.38;;;;;;;25.32;72.93;99192.44;4803454;29;20053;-51
2021/07/15 04:57:29;;;;;;;25.77;18.17;;;;;;;25.40;72.48;99195.16;4801758;29;20043;-50
2021/07/15 04:59:55;;;;;;;27.30;18.52;;;;;;;25.48;71.80;99184.56;4803950;29;20050;-52
2021/07/15 05:02:22;;;;;;;27.45;18.05;;;;;;;25.57;71.50;99196.94;4804656;29;20062;-53
2021/07/15 05:04:51;;;;;;;25.63;17.55;;;;;;;25.65;71.00;99193.44;4807022;29;20539;-47
2021/07/15 05:07:17;;;;;;;25.50;18.42;;;;;;;25.72;70.47;99191.81;4806200;29;20111;-49
2021/07/15 05:09:44;;;;;;;26.92;17.10;;;;;;;25.80;70.33;99186.53;4806903;29;20054;-48
2021/07/15 05:12:10;;;;;;;31.75;19.50;;;;;;;25.87;69.89;99186.72;4806587;29;20043;-47
2021/07/15 05:14:41;;;;;;;25.77;17.25;;;;;;;25.93;69.85;99186.06;4805742;29;20051;-47
2021/07/15 05:17:10;;;;;;;26.60;17.60;;;;;;;25.95;69.22;99190.25;4805313;29;20392;-48
2021/07/15 05:19:37;;;;;;;23.77;18.73;;;;;;;26.05;68.37;99192.78;4805556;29;20043;-48
2021/07/15 05:22:03;;;;;;;26.50;17.50;;;;;;;26.13;68.21;99193.59;4803468;29;20042;-48
2021/07/15 05:24:29;;;;;;;23.60;17.02;;;;;;;26.22;67.38;99189.19;4806352;29;20102;-47
2021/07/15 05:26:55;;;;;;;24.95;18.20;;;;;;;26.32;66.45;99194.34;4806292;29;20058;-48
2021/07/15 05:29:21;;;;;;;29.10;18.45;;;;;;;26.39;66.17;99180.19;4806719;29;20099;-47
2021/07/15 05:31:46;;;;;;;22.63;16.67;;;;;;;26.46;65.66;99188.38;4805932;29;20047;-48
2021/07/15 05:34:14;;;;;;;24.67;16.95;;;;;;;26.53;65.52;99187.53;4803681;29;20047;-49
2021/07/15 05:36:40;;;;;;;22.08;15.75;;;;;;;26.62;65.13;99183.03;4805457;29;20043;-47
2021/07/15 05:39:06;;;;;;;31.55;20.63;;;;;;;26.74;64.51;99183.53;4803656;29;20047;-48
2021/07/15 05:41:32;;;;;;;27.55;17.65;;;;;;;26.84;64.21;99187.69;4804714;29;20043;-51
2021/07/15 05:43:58;;;;;;;34.33;19.75;;;;;;;26.90;63.79;99178.22;4805833;29;20039;-51
2021/07/15 05:46:24;;;;;;;21.63;17.17;;;;;;;26.99;63.47;99177.19;4806609;29;20053;-52
2021/07/15 05:48:49;;;;;;;20.70;16.00;;;;;;;27.10;63.09;99173.34;4823352;29;20073;-48
2021/07/15 05:51:15;;;;;;;22.05;16.52;;;;;;;27.20;62.46;99173.97;4823914;29;20098;-48
2021/07/15 05:53:41;;;;;;;26.48;18.10;;;;;;;27.27;61.62;99173.13;4823426;29;20042;-48
2021/07/15 05:56:06;;;;;;;22.60;16.38;;;;;;;27.38;61.34;99164.75;4822470;29;20051;-45
2021/07/15 05:58:32;;;;;;;25.05;16.80;;;;;;;27.55;60.62;99170.06;4822017;29;20525;-45
2021/07/15 06:00:57;;;;;;;23.70;16.77;;;;;;;27.55;60.26;99162.88;4822752;29;20038;-47
2021/07/15 06:03:23;;;;;;;21.35;15.10;;;;;;;27.67;60.08;99163.34;4824255;29;20430;-47
2021/07/15 06:05:49;;;;;;;24.58;15.70;;;;;;;27.83;59.37;99163.25;4815027;29;20046;-47
2021/07/15 06:08:15;;;;;;;19.58;15.02;;;;;;;27.98;59.00;99163.31;4820518;29;20058;-47
2021/07/15 06:10:41;;;;;;;22.13;14.95;;;;;;;28.17;58.47;99170.91;4822392;29;20096;-46
2021/07/15 06:13:06;;;;;;;24.52;15.27;;;;;;;28.39;57.88;99172.78;4824055;29;20053;-46
2021/07/15 06:15:32;;;;;;;20.48;14.50;;;;;;;28.48;57.10;99163.66;4820986;29;20050;-47
2021/07/15 06:17:58;;;;;;;18.05;14.35;;;;;;;28.55;56.98;99164.63;4821576;29;20053;-46
2021/07/15 06:20:24;;;;;;;23.52;15.95;;;;;;;28.63;56.42;99166.38;4822975;29;20050;-46
2021/07/15 06:22:50;;;;;;;22.45;14.90;;;;;;;28.77;56.04;99162.97;4823213;29;20574;-46
2021/07/15 06:25:15;;;;;;;27.80;16.35;;;;;;;28.80;55.19;99159.91;4823167;29;20041;-47
2021/07/15 06:27:42;;;;;;;19.33;15.48;;;;;;;28.93;54.87;99161.97;4821995;29;20485;-48
2021/07/15 06:30:10;;;;;;;23.25;15.32;;;;;;;29.09;54.89;99158.28;4819055;29;20141;-47
2021/07/15 06:32:35;;;;;;;20.38;15.32;;;;;;;29.26;54.78;99157.06;4818041;29;20053;-46
2021/07/15 06:35:03;;;;;;;26.95;15.82;;;;;;;29.43;53.63;99162.09;4821958;29;20034;-46
2021/07/15 06:37:33;;;;;;;;;;;;;;;29.54;53.10;99150.09;4822632;29;20103;-49
2021/07/15 06:40:00;;;;;;;24.85;16.58;;;;;;;29.71;52.01;99151.53;4820751;29;19932;-46
2021/07/15 06:42:26;;;;;;;20.88;16.88;;;;;;;30.09;51.15;99159.44;4823351;29;20054;-48
2021/07/15 06:44:52;;;;;;;24.17;15.85;;;;;;;30.59;50.09;99159.31;4822198;29;20046;-47
2021/07/15 06:47:18;;;;;;;33.30;15.93;;;;;;;31.18;48.69;99144.69;4821014;29;20097;-46
2021/07/15 06:49:43;;;;;;;31.13;19.33;;;;;;;32.01;46.33;99149.84;4821122;29;20055;-46
2021/07/15 06:52:09;;;;;;;22.10;15.07;;;;;;;32.77;44.35;99139.59;4820877;29;20042;-44
2021/07/15 06:54:35;;;;;;;25.20;15.30;;;;;;;33.45;42.85;99142.81;4820673;29;20046;-45
2021/07/15 06:57:00;;;;;;;19.98;14.98;;;;;;;34.12;40.83;99147.72;4818363;29;20506;-46
2021/07/15 06:59:26;;;;;;;20.27;15.20;;;;;;;34.92;39.27;99146.09;4820674;29;20695;-50
2021/07/15 07:01:52;;;;;;;22.60;14.75;;;;;;;35.67;37.59;99153.00;4802217;29;20042;-45
2021/07/15 07:04:17;;;;;;;27.35;16.50;;;;;;;36.40;36.29;99144.72;4822495;29;20399;-44
2021/07/15 07:06:43;;;;;;;20.45;13.25;;;;;;;37.14;34.34;99158.72;4818811;29;20050;-46
2021/07/15 07:09:09;;;;;;;20.23;13.57;;;;;;;37.71;32.88;99151.56;4819855;29;20467;-49
2021/07/15 07:11:34;;;;;;;22.80;14.73;;;;;;;38.28;32.01;99155.09;4822000;29;20085;-47
2021/07/15 07:14:00;;;;;;;22.80;18.55;;;;;;;38.77;30.94;99167.09;4821738;29;20050;-46
2021/07/15 07:16:26;;;;;;;19.52;17.42;;;;;;;39.28;30.22;99159.72;4820288;29;20057;-46
2021/07/15 07:18:51;;;;;;;20.65;15.63;;;;;;;39.82;29.81;99163.44;4821597;29;20053;-50
2021/07/15 07:21:17;;;;;;;20.05;15.13;;;;;;;40.27;29.30;99156.84;4821284;29;20053;-45
2021/07/15 07:23:43;;;;;;;18.98;14.85;;;;;;;40.70;27.85;99153.16;4813043;29;20474;-50
2021/07/15 07:26:08;;;;;;;18.45;15.80;;;;;;;41.11;27.99;99148.81;4812144;29;20537;-47
2021/07/15 07:28:34;;;;;;;25.52;16.27;;;;;;;41.54;27.09;99145.78;4820040;29;20050;-47
2021/07/15 07:31:00;;;;;;;23.85;16.73;;;;;;;41.87;26.93;99152.78;4816754;29;20422;-52
2021/07/15 07:33:25;;;;;;;26.60;17.50;;;;;;;42.20;26.54;99151.44;4818577;29;20042;-51
2021/07/15 07:35:51;;;;;;;23.83;16.17;;;;;;;42.42;25.76;99148.50;4816854;29;20062;-47
2021/07/15 07:38:17;;;;;;;19.92;15.10;;;;;;;42.58;25.39;99150.94;4820222;29;20502;-49
2021/07/15 07:40:43;;;;;;;25.52;15.68;;;;;;;42.69;24.84;99151.78;4814527;29;20042;-50
2021/07/15 07:43:09;;;;;;;23.52;15.98;;;;;;;42.88;24.94;99152.03;4804892;29;20086;-49
2021/07/15 07:45:34;;;;;;;25.95;16.13;;;;;;;43.08;25.03;99139.16;4819136;29;20042;-47
2021/07/15 07:48:00;;;;;;;23.13;16.75;;;;;;;43.34;24.38;99150.84;4809317;29;20062;-51
2021/07/15 07:50:27;;;;;;;26.52;17.83;;;;;;;43.54;24.28;99140.97;4819273;29;20063;-49
2021/07/15 07:52:55;;;;;;;25.38;17.38;;;;;;;43.68;24.07;99133.75;4821534;29;20536;-47
2021/07/15 07:55:21;;;;;;;19.60;16.67;;;;;;;43.95;23.45;99133.34;4821832;29;20111;-47
2021/07/15 07:57:46;;;;;;;23.85;17.52;;;;;;;44.02;23.09;99128.38;4821558;29;20521;-46
2021/07/15 08:00:14;;;;;;;19.48;14.98;;;;;;;44.00;23.06;99125.94;4820223;29;20051;-47
2021/07/15 08:02:41;;;;;;;23.30;17.05;;;;;;;44.21;22.70;99127.41;4821616;29;20051;-48
2021/07/15 08:05:08;;;;;;;21.43;16.80;;;;;;;44.26;23.16;99126.56;4817508;29;20422;-50
2021/07/15 08:07:34;;;;;;;60.60;20.17;;;;;;;44.29;22.62;99123.25;4813464;29;20149;-48
2021/07/15 08:10:01;;;;;;;31.80;18.08;;;;;;;44.44;22.53;99123.13;4795757;29;20069;-51
2021/07/15 08:12:27;;;;;;;35.42;18.70;;;;;;;44.75;22.44;99114.66;4815644;29;20046;-48
2021/07/15 08:14:52;;;;;;;26.85;17.35;;;;;;;44.98;22.09;99116.59;4818225;29;20414;-46
2021/07/15 08:17:18;;;;;;;36.05;18.30;;;;;;;45.26;21.72;99120.44;4813937;29;20050;-49
2021/07/15 08:19:44;;;;;;;20.92;17.13;;;;;;;45.50;21.53;99122.06;4814723;29;20057;-48
2021/07/15 08:22:10;;;;;;;25.35;17.20;;;;;;;45.58;21.15;99120.59;4815138;29;20047;-51
2021/07/15 08:24:35;;;;;;;43.50;18.38;;;;;;;45.09;21.35;99115.41;4811907;29;20050;-50
2021/07/15 08:27:01;;;;;;;27.88;22.42;;;;;;;45.24;21.24;99122.63;4813167;29;20047;-49
2021/07/15 08:29:27;;;;;;;27.10;17.05;;;;;;;45.51;20.60;99111.88;4813629;29;20565;-49
2021/07/15 08:31:53;;;;;;;32.50;16.50;;;;;;;45.72;20.42;99116.00;4812153;29;20125;-47
2021/07/15 08:34:19;;;;;;;24.83;16.58;;;;;;;45.95;19.94;99104.16;4812848;29;20049;-48
2021/07/15 08:36:44;;;;;;;23.38;16.63;;;;;;;46.13;20.37;99104.41;4814088;29;20420;-48
2021/07/15 08:39:10;;;;;;;22.05;17.23;;;;;;;45.71;19.85;99108.03;4815594;29;20057;-49
2021/07/15 08:41:36;;;;;;;21.08;17.63;;;;;;;44.92;20.69;99104.03;4817460;29;20537;-47
2021/07/15 08:44:05;;;;;;;19.70;15.60;;;;;;;44.75;21.05;99100.94;4818290;29;20773;-47
2021/07/15 08:46:32;;;;;;;19.02;14.80;;;;;;;45.19;21.08;99092.50;4821539;29;20383;-49
2021/07/15 08:48:58;;;;;;;21.05;14.73;;;;;;;44.90;20.52;99096.13;4806701;29;20126;-52
2021/07/15 08:51:24;;;;;;;21.80;15.65;;;;;;;43.76;22.33;99092.88;4804860;29;20488;-53
2021/07/15 08:53:50;;;;;;;24.45;16.48;;;;;;;42.72;22.89;99080.13;4821010;29;20050;-52
2021/07/15 08:59:00;;;;;;;19.83;13.75;;;;;;;41.57;24.34;99071.53;4836520;29;20057;-49
2021/07/15 09:01:29;;;;;;;21.67;14.43;;;;;;;41.25;24.79;99070.84;4839561;29;20038;-53
2021/07/15 09:03:55;;;;;;;27.23;13.73;;;;;;;42.22;23.12;99078.22;4829566;29;20058;-50
2021/07/15 09:06:20;;;;;;;19.05;12.32;;;;;;;43.52;21.44;99071.94;4832187;29;20046;-52
2021/07/15 09:08:49;;;;;;;14.68;12.00;;;;;;;44.30;20.64;99073.63;4822046;29;20060;-48
2021/07/15 09:11:14;;;;;;;15.77;12.23;;;;;;;44.41;20.17;99076.28;4821506;29;20046;-49
2021/07/15 09:13:41;;;;;;;19.00;12.02;;;;;;;44.43;20.32;99068.59;4819657;29;20043;-50
2021/07/15 09:16:12;;;;;;;16.38;14.10;;;;;;;44.84;20.27;99060.78;4821236;29;20391;-48
2021/07/15 09:19:01;;;;;;;16.88;12.60;;;;;;;45.52;19.35;99055.84;4819510;29;20043;-47
2021/07/15 09:21:31;;;;;;;14.93;12.57;;;;;;;45.60;19.10;99057.91;4820878;29;20061;-48
2021/07/15 09:23:58;;;;;;;13.85;11.48;;;;;;;45.29;19.41;99043.78;4818828;29;20045;-50
2021/07/15 09:26:32;;;;;;;12.30;11.05;;;;;;;45.68;19.01;99039.97;4818376;29;20047;-51
2021/07/15 09:29:14;;;;;;;13.23;11.70;;;;;;;46.16;18.91;99040.59;4805655;29;20047;-52
2021/07/15 09:31:53;;;;;;;11.63;10.20;;;;;;;46.57;18.02;99035.22;4816724;29;20387;-51
2021/07/15 09:34:20;;;;;;;11.40;10.38;;;;;;;46.67;17.42;99035.84;4814094;29;20520;-46
2021/07/15 09:36:45;;;;;;;40.03;33.67;;;;;;;46.80;16.99;99019.66;4830297;29;20046;-48
2021/07/15 09:39:24;;;;;;;11.70;10.57;;;;;;;47.32;17.05;99019.09;4813722;29;20421;-51
2021/07/15 09:42:11;;;;;;;30.83;15.60;;;;;;;47.75;17.08;99018.69;4823375;29;20403;-49
2021/07/15 09:44:38;;;;;;;10.48;9.45;;;;;;;47.96;16.28;99009.59;4815017;29;20046;-49
2021/07/15 09:47:06;;;;;;;10.77;9.90;;;;;;;47.90;16.44;99007.28;4818754;29;20558;-47
2021/07/15 09:49:35;;;;;;;13.57;12.30;;;;;;;47.72;16.61;99005.53;4828647;29;20046;-47
2021/07/15 09:52:03;;;;;;;11.65;10.73;;;;;;;47.77;16.38;99003.47;4815733;29;20047;-47
2021/07/15 09:54:29;;;;;;;10.75;9.85;;;;;;;47.88;16.19;98996.59;4822352;29;20050;-47
2021/07/15 09:56:54;;;;;;;13.60;10.52;;;;;;;48.10;15.89;99003.22;4827534;29;20062;-47
2021/07/15 09:59:20;;;;;;;12.15;10.90;;;;;;;47.82;15.98;98999.78;4818177;29;20532;-46
2021/07/15 10:01:52;;;;;;;11.77;10.55;;;;;;;47.25;16.07;99001.34;4818554;29;20100;-47
2021/07/15 10:04:28;;;;;;;13.35;9.85;;;;;;;46.98;16.42;98997.53;4818643;29;20426;-48
2021/07/15 10:06:57;;;;;;;11.27;10.37;;;;;;;47.08;16.19;98996.47;4819253;29;20073;-47
2021/07/15 10:09:30;;;;;;;10.82;9.82;;;;;;;46.70;17.03;98993.13;4819962;29;20084;-48
2021/07/15 10:11:57;;;;;;;14.10;12.00;;;;;;;46.42;16.90;98985.97;4822645;29;20418;-48
2021/07/15 10:14:38;;;;;;;12.43;11.27;;;;;;;46.40;16.89;98985.44;4822825;29;20050;-47
2021/07/15 10:17:05;;;;;;;11.38;10.23;;;;;;;45.75;17.38;98969.75;4819446;29;20141;-49
2021/07/15 10:19:31;;;;;;;;;;;;;;;45.93;17.25;98979.94;4825837;29;20050;-49
2021/07/15 10:22:02;;;;;;;12.23;9.80;;;;;;;45.35;18.01;98976.69;4829233;29;19928;-55
2021/07/15 10:24:28;;;;;;;11.20;9.80;;;;;;;45.61;17.83;98976.31;4819356;29;20050;-50
2021/07/15 10:27:11;;;;;;;9.27;8.40;;;;;;;44.79;18.27;98968.38;4818577;29;20060;-48
2021/07/15 10:29:37;;;;;;;15.88;9.43;;;;;;;42.82;20.19;98962.47;4818013;29;20656;-47
2021/07/15 10:32:04;;;;;;;12.55;8.90;;;;;;;41.34;21.49;98957.38;4818115;29;20033;-51
2021/07/15 10:34:31;;;;;;;12.37;10.00;;;;;;;40.01;24.38;98957.75;4811773;29;20047;-49
2021/07/15 10:37:06;;;;;;;15.98;9.98;;;;;;;38.46;26.66;98964.75;4811261;29;20110;-53
2021/07/15 10:39:33;;;;;;;15.05;9.38;;;;;;;37.60;28.16;98966.03;4807473;29;20038;-48
2021/07/15 10:41:59;;;;;;;13.93;9.75;;;;;;;36.57;30.15;98978.81;4804137;29;20846;-47
2021/07/15 10:44:28;;;;;;;14.93;9.38;;;;;;;35.68;31.43;99010.47;4806906;29;20085;-48
2021/07/15 10:46:57;;;;;;;16.38;8.25;;;;;;;34.70;33.14;99017.91;4811396;29;20058;-48
2021/07/15 10:49:23;;;;;;;23.60;8.40;;;;;;;31.66;50.20;99020.09;4818817;29;20055;-48
2021/07/15 10:51:51;;;;;;;24.27;10.15;;;;;;;28.40;62.25;99031.88;4825758;29;20428;-49
2021/07/15 10:54:17;;;;;;;18.27;11.32;;;;;;;26.96;71.27;99020.94;4818284;29;20058;-48
2021/07/15 10:56:51;;;;;;;16.20;11.20;;;;;;;25.81;75.04;99006.25;4819340;29;20062;-48
2021/07/15 10:59:31;;;;;;;13.05;8.55;;;;;;;24.56;78.42;99015.94;4819341;29;20035;-46
2021/07/15 11:01:59;;;;;;;14.68;9.10;;;;;;;23.91;83.56;99037.56;4827727;29;20054;-46
2021/07/15 11:04:40;;;;;;;15.35;8.93;;;;;;;23.40;86.64;99061.19;4822160;29;20112;-46
2021/07/15 11:07:31;;;;;;;16.90;9.57;;;;;;;23.22;92.69;99077.09;4826600;29;20046;-46
2021/07/15 11:10:16;;;;;;;14.02;10.52;;;;;;;23.36;98.11;99089.03;4811458;29;20047;-47
2021/07/15 11:12:57;;;;;;;16.23;10.27;;;;;;;23.34;97.03;99097.16;4818953;29;20085;-50
2021/07/15 11:15:23;;;;;;;10.15;7.82;;;;;;;23.06;96.32;99125.47;4817409;29;20514;-46
2021/07/15 11:17:53;;;;;;;17.90;11.93;;;;;;;22.99;98.61;99142.91;4822820;29;20054;-46
2021/07/15 11:20:26;;;;;;;21.83;12.32;;;;;;;23.17;100.00;99154.44;4811747;29;20027;-47
2021/07/15 11:22:56;;;;;;;18.90;13.45;;;;;;;23.29;100.00;99164.88;4817314;29;20052;-47
2021/07/15 11:25:27;;;;;;;17.90;12.38;;;;;;;23.28;100.00;99169.34;4812786;29;20074;-50
2021/07/15 11:27:55;;;;;;;15.13;10.38;;;;;;;23.22;100.00;99168.13;4812069;29;20047;-55
2021/07/15 11:30:45;;;;;;;15.85;12.73;;;;;;;23.17;100.00;99172.19;4820579;29;20042;-55